Estación Meteorológica Peña el Pijo (Robertgarden) [ 07/21/17 06:30:48 CEST ]

Fecha Hora Presion(HPa) Temp (°C) Humedad % Rocio (°C) Viento ( m/s) Direccion Lluvia 1Hora(mm) Lluvia 24H(mm) LLuvia Total(mm)
2017-Apr-10 01:01:47 1015.200 6.4 75 2.3         1357.67
2017-Apr-10 02:01:47 1015.100 5.1 76 1.2         1357.67
2017-Apr-10 03:01:53 1014.600 3.8 79 0.5         1357.67
2017-Apr-10 04:01:51 1014.300 2.7 79 -0.6         1357.67
2017-Apr-10 05:01:41 1013.800 2.2 81 -0.7         1357.67
2017-Apr-10 06:01:48 1013.700 1.5 81 -1.4         1357.67
2017-Apr-10 07:01:52 1013.600 1.2 82 -1.6         1357.67
2017-Apr-10 08:01:46 1014.100 0.6 82 -2.1         1357.67
2017-Apr-10 09:01:50 1014.500 4.6 85 2.3         1357.67
2017-Apr-10 10:01:41 1014.600 11.1 64 4.5         1357.67
2017-Apr-10 11:01:54 1014.600 14.9 39 1.0 1.0 ESE     1357.67
2017-Apr-10 12:01:48 1014.600 18.8 31 1.3 1.9 SSE     1357.67
2017-Apr-10 13:01:50 1014.100 20.8 26 0.4         1357.67
2017-Apr-10 14:01:37 1013.800 20.9 28 1.6         1357.67
2017-Apr-10 15:01:49 1013.500 22.1 28 2.6 1.5 SSE     1357.67
2017-Apr-10 16:01:49 1013.000 22.9 25 1.6         1357.67
2017-Apr-10 17:02:01 1012.800 23.3 23 0.8         1357.67
2017-Apr-10 18:01:39 1012.700 21.6 24 -0.1 1.9 E     1357.67
2017-Apr-10 19:01:36 1012.800 20.4 26 0.0         1357.67
2017-Apr-10 20:01:49 1013.200 16.6 33 0.1         1357.67
2017-Apr-10 21:01:38 1013.400 14.3 36 -0.7         1357.67
2017-Apr-10 22:01:44 1014.400 11.3 43 -0.9         1357.67
2017-Apr-10 23:01:36 1014.600 9.1 49 -1.1         1357.67

Temperatura Máxima:23°    Temperatura Mínima:
Presión Máxima:1015.200 Hpa    Presión Mínima:1012.700 Hpa


Volver